Time;durP1;ratioP1;P1;durP2;ratioP2;P2;SDS_P1;SDS_P2;PMS_P1;PMS_P2;Temp;Humidity;BMP_temperature;BMP_pressure;BME280_temperature;BME280_humidity;BME280_pressure;Samples;Min_cycle;Max_cycle;Signal;HPM_P1;HPM_P2
2022/03/03 00:02:20;;;;;;;;;;;12.30;87.80;;;;;;5114442;28;19977;-66
2022/03/03 00:04:46;;;;;;;;;;;;;;;;;;5109356;28;20323;-66
2022/03/03 00:07:11;;;;;;;;;;;12.40;87.70;;;;;;5100240;28;19989;-66
2022/03/03 00:09:37;;;;;;;;;;;12.50;87.70;;;;;;5095984;28;19924;-67
2022/03/03 00:12:03;;;;;;;;;;;12.60;87.70;;;;;;5111531;28;19927;-64
2022/03/03 00:14:29;;;;;;;;;;;;;;;;;;5114250;28;19963;-65
2022/03/03 00:16:54;;;;;;;;;;;12.60;87.50;;;;;;5095614;28;19924;-66
2022/03/03 00:19:20;;;;;;;;;;;12.50;87.40;;;;;;5077902;28;19947;-66
2022/03/03 00:21:45;;;;;;;;;;;12.50;87.50;;;;;;5095752;28;20278;-66
2022/03/03 00:24:11;;;;;;;;;;;12.50;87.50;;;;;;5089137;28;19931;-66
2022/03/03 00:26:37;;;;;;;;;;;12.30;87.20;;;;;;5099537;28;19967;-67
2022/03/03 00:29:03;;;;;;;;;;;;;;;;;;5095166;28;19924;-66
2022/03/03 00:31:28;;;;;;;;;;;12.50;87.20;;;;;;5106666;28;19993;-66
2022/03/03 00:33:54;;;;;;;;;;;12.40;87.10;;;;;;5075054;28;19972;-66
2022/03/03 00:36:19;;;;;;;;;;;12.20;87.00;;;;;;5099346;28;19924;-66
2022/03/03 00:38:45;;;;;;;;;;;12.50;87.20;;;;;;5097461;28;20332;-66
2022/03/03 00:41:11;;;;;;;;;;;12.30;87.00;;;;;;5068269;28;19939;-63
2022/03/03 00:43:36;;;;;;;;;;;12.40;87.10;;;;;;5083977;28;20022;-65
2022/03/03 00:46:02;;;;;;;;;;;12.30;86.90;;;;;;5075235;28;19925;-65
2022/03/03 00:48:27;;;;;;;;;;;12.40;86.90;;;;;;5074934;28;20377;-66
2022/03/03 00:50:53;;;;;;;;;;;12.60;86.80;;;;;;5075166;28;19931;-64
2022/03/03 00:53:19;;;;;;;;;;;12.60;86.70;;;;;;5075998;28;19925;-64
2022/03/03 00:55:45;;;;;;;;;;;12.30;86.40;;;;;;5074994;28;19932;-65
2022/03/03 00:58:10;;;;;;;;;;;12.20;86.40;;;;;;5080904;28;19932;-65
2022/03/03 01:00:36;;;;;;;;;;;12.60;86.70;;;;;;5092835;28;19935;-66
2022/03/03 01:03:01;;;;;;;;;;;12.50;86.50;;;;;;5094070;28;19967;-65
2022/03/03 01:05:27;;;;;;;;;;;12.30;86.40;;;;;;5082651;28;19920;-66
2022/03/03 01:07:53;;;;;;;;;;;12.40;86.20;;;;;;5086404;28;20393;-66
2022/03/03 01:10:18;;;;;;;;;;;12.40;86.00;;;;;;5057896;28;20015;-66
2022/03/03 01:12:44;;;;;;;;;;;12.60;86.10;;;;;;5088298;28;19921;-66
2022/03/03 01:15:10;;;;;;;;;;;12.70;86.10;;;;;;5061007;28;19924;-66
2022/03/03 01:17:36;;;;;;;;;;;12.30;86.00;;;;;;5093139;28;19976;-66
2022/03/03 01:20:02;;;;;;;;;;;12.50;86.10;;;;;;5076940;28;20397;-66
2022/03/03 01:22:27;;;;;;;;;;;12.60;86.00;;;;;;5056898;28;19931;-66
2022/03/03 01:24:53;;;;;;;;;;;12.30;85.90;;;;;;5055996;28;19946;-66
2022/03/03 01:27:19;;;;;;;;;;;12.60;86.10;;;;;;5074029;28;20305;-66
2022/03/03 01:29:45;;;;;;;;;;;;;;;;;;5083917;28;20024;-65
2022/03/03 01:32:10;;;;;;;;;;;12.20;85.80;;;;;;5093230;28;19924;-66
2022/03/03 01:34:37;;;;;;;;;;;12.50;86.00;;;;;;5080619;28;19931;-66
2022/03/03 01:37:03;;;;;;;;;;;12.10;85.80;;;;;;5104436;28;20056;-66
2022/03/03 01:39:28;;;;;;;;;;;12.20;85.80;;;;;;5103395;28;20365;-66
2022/03/03 01:41:54;;;;;;;;;;;12.40;85.80;;;;;;5112935;28;20430;-67
2022/03/03 01:44:19;;;;;;;;;;;12.20;85.70;;;;;;5114922;28;20357;-66
2022/03/03 01:46:53;;;;;;;;;;;12.30;85.70;;;;;;5094176;28;20305;-66
2022/03/03 01:49:19;;;;;;;;;;;12.20;85.50;;;;;;5099062;28;19936;-66
2022/03/03 01:51:44;;;;;;;;;;;12.10;85.40;;;;;;5093596;28;19924;-66
2022/03/03 01:54:10;;;;;;;;;;;12.20;85.60;;;;;;5094457;28;19928;-66
2022/03/03 01:56:36;;;;;;;;;;;12.50;85.80;;;;;;5093574;28;19942;-66
2022/03/03 01:59:02;;;;;;;;;;;12.10;85.60;;;;;;5076083;28;19924;-66
2022/03/03 02:01:30;;;;;;;;;;;;;;;;;;5077602;28;19931;-66
2022/03/03 02:03:55;;;;;;;;;;;12.20;85.50;;;;;;5094225;28;19924;-66
2022/03/03 02:06:21;;;;;;;;;;;12.20;85.30;;;;;;5085126;28;20374;-66
2022/03/03 02:08:47;;;;;;;;;;;12.10;85.30;;;;;;5093739;28;20011;-66
2022/03/03 02:11:12;;;;;;;;;;;11.80;85.00;;;;;;5094620;28;20447;-66
2022/03/03 02:13:38;;;;;;;;;;;12.00;85.10;;;;;;5109685;28;19927;-66
2022/03/03 02:16:04;;;;;;;;;;;12.10;85.20;;;;;;5108698;28;19978;-66
2022/03/03 02:18:29;;;;;;;;;;;12.20;85.20;;;;;;5086327;28;19931;-66
2022/03/03 02:20:55;;;;;;;;;;;12.10;85.10;;;;;;5106678;28;19962;-66
2022/03/03 02:23:21;;;;;;;;;;;;;;;;;;5116858;28;20351;-66
2022/03/03 02:25:46;;;;;;;;;;;12.00;85.10;;;;;;5098139;28;19920;-66
2022/03/03 02:28:12;;;;;;;;;;;12.20;85.00;;;;;;5097480;28;20003;-66
2022/03/03 02:30:38;;;;;;;;;;;12.30;85.00;;;;;;5099163;28;19974;-67
2022/03/03 02:33:03;;;;;;;;;;;12.10;85.00;;;;;;5103726;28;19924;-66
2022/03/03 02:35:29;;;;;;;;;;;12.20;84.90;;;;;;5097279;28;19970;-66
2022/03/03 02:37:55;;;;;;;;;;;12.20;84.90;;;;;;5099971;28;19976;-66
2022/03/03 02:40:21;;;;;;;;;;;12.10;84.80;;;;;;5108145;28;19928;-66
2022/03/03 02:42:47;;;;;;;;;;;;;;;;;;5106780;28;20294;-66
2022/03/03 02:45:13;;;;;;;;;;;12.10;84.80;;;;;;5097941;28;19927;-66
2022/03/03 02:47:39;;;;;;;;;;;12.00;84.60;;;;;;5101486;28;19923;-66
2022/03/03 02:50:05;;;;;;;;;;;12.30;84.80;;;;;;5097616;28;19924;-67
2022/03/03 02:52:30;;;;;;;;;;;12.10;84.80;;;;;;5099683;28;19980;-67
2022/03/03 02:54:56;;;;;;;;;;;12.10;85.00;;;;;;5117308;28;19930;-66
2022/03/03 03:00:06;;;;;;;;;;;11.70;84.20;;;;;;5101106;28;19931;-63
2022/03/03 03:02:32;;;;;;;;;;;11.80;85.10;;;;;;5101683;28;20299;-65
2022/03/03 03:04:57;;;;;;;;;;;12.00;85.20;;;;;;5081812;28;20292;-66
2022/03/03 03:07:23;;;;;;;;;;;11.90;85.20;;;;;;5099520;28;19924;-66
2022/03/03 03:09:48;;;;;;;;;;;11.90;85.30;;;;;;5100640;28;19931;-66
2022/03/03 03:12:14;;;;;;;;;;;11.80;85.20;;;;;;5096863;28;19977;-65
2022/03/03 03:14:40;;;;;;;;;;;11.70;85.30;;;;;;5097230;28;19924;-66
2022/03/03 03:17:06;;;;;;;;;;;;;;;;;;5096978;28;20461;-66
2022/03/03 03:19:32;;;;;;;;;;;11.70;85.20;;;;;;5082242;28;20007;-66
2022/03/03 03:21:59;;;;;;;;;;;11.90;85.40;;;;;;5098325;28;19982;-66
2022/03/03 03:24:24;;;;;;;;;;;11.90;85.40;;;;;;5103618;28;19931;-67
2022/03/03 03:26:50;;;;;;;;;;;11.80;85.20;;;;;;5100956;28;19928;-66
2022/03/03 03:29:15;;;;;;;;;;;12.00;85.40;;;;;;5099732;27;20315;-67
2022/03/03 03:31:41;;;;;;;;;;;;;;;;;;5097155;28;19924;-66
2022/03/03 03:34:07;;;;;;;;;;;11.70;85.00;;;;;;5096881;28;19924;-66
2022/03/03 03:36:33;;;;;;;;;;;11.80;85.30;;;;;;5097061;28;20068;-65
2022/03/03 03:38:58;;;;;;;;;;;11.90;85.40;;;;;;5103515;28;20399;-66
2022/03/03 03:41:24;;;;;;;;;;;11.70;85.20;;;;;;5112638;28;19932;-66
2022/03/03 03:43:49;;;;;;;;;;;12.20;85.50;;;;;;5078338;28;19969;-66
2022/03/03 03:46:15;;;;;;;;;;;11.90;85.30;;;;;;5096398;28;19924;-66
2022/03/03 03:48:41;;;;;;;;;;;11.80;85.20;;;;;;5104417;28;19981;-65
2022/03/03 03:51:06;;;;;;;;;;;12.00;85.30;;;;;;5077333;28;20373;-66
2022/03/03 03:53:32;;;;;;;;;;;11.80;85.10;;;;;;5112512;28;20018;-66
2022/03/03 03:55:58;;;;;;;;;;;11.90;85.20;;;;;;5116914;28;19930;-66
2022/03/03 03:58:23;;;;;;;;;;;11.80;85.20;;;;;;5098441;28;20313;-66
2022/03/03 04:00:49;;;;;;;;;;;11.80;85.10;;;;;;5113258;28;19969;-66
2022/03/03 04:03:14;;;;;;;;;;;11.90;85.10;;;;;;5114643;28;19923;-66
2022/03/03 04:05:40;;;;;;;;;;;12.00;85.00;;;;;;5088311;28;19935;-66
2022/03/03 04:08:05;;;;;;;;;;;12.10;85.00;;;;;;5095861;28;19924;-66
2022/03/03 04:10:31;;;;;;;;;;;11.70;84.70;;;;;;5096948;28;20397;-66
2022/03/03 04:12:58;;;;;;;;;;;12.00;84.80;;;;;;5095861;28;19924;-66
2022/03/03 04:15:23;;;;;;;;;;;11.80;84.80;;;;;;5095999;28;19925;-66
2022/03/03 04:17:49;;;;;;;;;;;11.60;84.70;;;;;;5096356;28;19931;-65
2022/03/03 04:20:15;;;;;;;;;;;11.80;85.00;;;;;;5105569;28;19923;-65
2022/03/03 04:22:40;;;;;;;;;;;11.90;85.00;;;;;;5108301;27;20334;-65
2022/03/03 04:25:06;;;;;;;;;;;11.60;84.90;;;;;;5097558;28;20378;-66
2022/03/03 04:27:32;;;;;;;;;;;11.50;84.80;;;;;;5095182;28;19924;-66
2022/03/03 04:29:57;;;;;;;;;;;11.70;84.90;;;;;;5095711;28;19924;-66
2022/03/03 04:32:23;;;;;;;;;;;11.90;84.90;;;;;;5096227;28;19969;-66
2022/03/03 04:34:48;;;;;;;;;;;11.70;84.70;;;;;;5110197;27;19923;-66
2022/03/03 04:37:14;;;;;;;;;;;11.90;84.80;;;;;;5103778;28;19923;-65
2022/03/03 04:39:40;;;;;;;;;;;11.70;84.80;;;;;;5100952;28;19928;-66
2022/03/03 04:42:05;;;;;;;;;;;11.60;84.60;;;;;;5111751;28;19959;-66
2022/03/03 04:44:31;;;;;;;;;;;11.80;84.70;;;;;;5112912;28;19923;-66
2022/03/03 04:46:57;;;;;;;;;;;;;;;;;;5095498;28;20361;-66
2022/03/03 04:49:22;;;;;;;;;;;11.80;84.70;;;;;;5094730;28;20352;-66
2022/03/03 04:51:48;;;;;;;;;;;11.60;84.60;;;;;;5095610;28;19930;-66
2022/03/03 04:54:14;;;;;;;;;;;11.80;84.70;;;;;;5111794;28;20288;-66
2022/03/03 04:56:39;;;;;;;;;;;12.10;84.80;;;;;;5104521;28;19924;-66
2022/03/03 04:59:05;;;;;;;;;;;;;;;;;;5094807;28;19920;-66
2022/03/03 05:01:31;;;;;;;;;;;11.90;84.70;;;;;;5094620;28;19924;-66
2022/03/03 05:03:57;;;;;;;;;;;11.60;84.50;;;;;;5079311;28;19924;-66
2022/03/03 05:06:23;;;;;;;;;;;11.70;84.60;;;;;;5106369;28;19921;-66
2022/03/03 05:08:48;;;;;;;;;;;12.00;84.70;;;;;;5094353;28;19924;-66
2022/03/03 05:11:14;;;;;;;;;;;11.50;84.50;;;;;;5076694;28;19924;-66
2022/03/03 05:13:39;;;;;;;;;;;11.70;84.60;;;;;;5102040;28;20006;-66
2022/03/03 05:16:05;;;;;;;;;;;11.70;84.60;;;;;;5095634;28;19924;-66
2022/03/03 05:18:31;;;;;;;;;;;11.60;84.60;;;;;;5094668;28;19931;-66
2022/03/03 05:20:56;;;;;;;;;;;11.50;84.70;;;;;;5095828;28;19924;-66
2022/03/03 05:23:22;;;;;;;;;;;11.50;84.60;;;;;;5094308;28;19931;-66
2022/03/03 05:25:48;;;;;;;;;;;11.50;84.60;;;;;;5101463;28;20053;-66
2022/03/03 05:28:14;;;;;;;;;;;11.30;84.50;;;;;;5094139;28;19931;-66
2022/03/03 05:30:39;;;;;;;;;;;11.60;84.70;;;;;;5105162;28;19945;-66
2022/03/03 05:33:05;;;;;;;;;;;11.70;84.70;;;;;;5113160;28;19931;-66
2022/03/03 05:35:31;;;;;;;;;;;;;;;;;;5105390;28;19924;-66
2022/03/03 05:37:57;;;;;;;;;;;11.50;84.60;;;;;;5093998;28;20024;-66
2022/03/03 05:40:23;;;;;;;;;;;11.50;84.60;;;;;;5096179;28;19924;-66
2022/03/03 05:42:48;;;;;;;;;;;11.80;84.60;;;;;;5112767;28;19942;-66
2022/03/03 05:45:14;;;;;;;;;;;;;;;;;;5115601;27;20023;-66
2022/03/03 05:47:40;;;;;;;;;;;11.60;84.60;;;;;;5097262;28;20019;-66
2022/03/03 05:50:06;;;;;;;;;;;11.40;84.70;;;;;;5094216;28;19930;-66
2022/03/03 05:52:32;;;;;;;;;;;11.30;84.50;;;;;;5095278;28;20282;-66
2022/03/03 05:54:57;;;;;;;;;;;11.50;84.60;;;;;;5107596;28;19924;-65
2022/03/03 05:57:24;;;;;;;;;;;;;;;;;;5094793;28;20259;-66
2022/03/03 05:59:51;;;;;;;;;;;11.20;84.40;;;;;;5109114;28;20087;-66
2022/03/03 06:02:19;;;;;;;;;;;11.20;84.30;;;;;;5075774;28;20079;-66
2022/03/03 06:04:45;;;;;;;;;;;11.50;84.50;;;;;;5098232;28;19955;-65
2022/03/03 06:07:11;;;;;;;;;;;11.40;84.40;;;;;;5105437;28;19981;-66
2022/03/03 06:09:37;;;;;;;;;;;11.10;84.30;;;;;;5083954;28;20369;-66
2022/03/03 06:12:06;;;;;;;;;;;11.50;84.60;;;;;;5098471;28;19924;-66
2022/03/03 06:14:33;;;;;;;;;;;;;;;;;;5113307;28;19927;-66
2022/03/03 06:16:59;;;;;;;;;;;11.30;84.10;;;;;;5096463;28;19931;-65
2022/03/03 06:19:24;;;;;;;;;;;11.50;84.60;;;;;;5109219;28;19920;-66
2022/03/03 06:21:50;;;;;;;;;;;11.60;84.60;;;;;;5101148;28;20308;-67
2022/03/03 06:24:15;;;;;;;;;;;11.20;84.40;;;;;;5102845;28;20381;-66
2022/03/03 06:26:41;;;;;;;;;;;11.60;84.60;;;;;;5102535;28;19971;-66
2022/03/03 06:29:07;;;;;;;;;;;;;;;;;;5093659;28;19991;-66
2022/03/03 06:31:33;;;;;;;;;;;;;;;;;;5113152;28;19924;-66
2022/03/03 06:33:59;;;;;;;;;;;11.20;84.40;;;;;;5093482;28;19924;-65
2022/03/03 06:36:25;;;;;;;;;;;11.30;84.30;;;;;;5093726;28;19970;-66
2022/03/03 06:38:50;;;;;;;;;;;11.30;84.50;;;;;;5094131;28;19935;-65
2022/03/03 06:41:16;;;;;;;;;;;11.20;84.40;;;;;;5094575;28;20292;-66
2022/03/03 06:43:42;;;;;;;;;;;11.40;84.50;;;;;;5093388;28;20010;-66
2022/03/03 06:46:09;;;;;;;;;;;11.50;84.50;;;;;;5084233;28;20313;-66
2022/03/03 06:48:34;;;;;;;;;;;11.40;84.30;;;;;;5101896;28;19924;-66
2022/03/03 06:51:01;;;;;;;;;;;;;;;;;;5086543;28;19935;-66
2022/03/03 06:53:28;;;;;;;;;;;11.70;84.30;;;;;;5111467;28;20023;-66
2022/03/03 06:55:56;;;;;;;;;;;11.70;84.00;;;;;;5115197;28;19923;-66
2022/03/03 06:58:22;;;;;;;;;;;11.70;83.80;;;;;;5077252;28;19925;-66
2022/03/03 07:00:48;;;;;;;;;;;11.60;83.70;;;;;;5094169;28;20028;-66
2022/03/03 07:03:14;;;;;;;;;;;;;;;;;;5094171;28;19924;-66
2022/03/03 07:05:40;;;;;;;;;;;11.90;83.50;;;;;;5093240;28;19936;-66
2022/03/03 07:08:06;;;;;;;;;;;12.10;83.20;;;;;;5108366;28;19993;-66
2022/03/03 07:10:32;;;;;;;;;;;12.30;83.40;;;;;;5096413;28;19968;-66
2022/03/03 07:12:58;;;;;;;;;;;12.20;83.40;;;;;;5098889;28;19924;-66
2022/03/03 07:15:24;;;;;;;;;;;;;;;;;;5097715;28;20332;-66
2022/03/03 07:18:09;;;;;;;;;;;12.30;82.90;;;;;;5104881;28;19935;-66
2022/03/03 07:20:42;;;;;;;;;;;12.30;82.80;;;;;;5088483;28;19985;-66
2022/03/03 07:23:08;;;;;;;;;;;;;;;;;;5097058;28;20328;-65
2022/03/03 07:25:38;;;;;;;;;;;12.70;82.50;;;;;;5096887;28;19924;-66
2022/03/03 07:28:05;;;;;;;;;;;12.80;82.20;;;;;;5096462;27;19928;-66
2022/03/03 07:30:31;;;;;;;;;;;12.80;82.10;;;;;;5105803;28;19958;-66
2022/03/03 07:33:06;;;;;;;;;;;12.80;82.10;;;;;;5102940;28;20348;-66
2022/03/03 07:35:33;;;;;;;;;;;13.00;81.80;;;;;;5077013;28;20017;-66
2022/03/03 07:37:59;;;;;;;;;;;13.00;81.80;;;;;;5095084;28;20314;-66
2022/03/03 07:40:29;;;;;;;;;;;13.10;81.50;;;;;;5092049;28;19934;-66
2022/03/03 07:42:55;;;;;;;;;;;13.30;81.50;;;;;;5092869;28;19972;-66
2022/03/03 07:45:21;;;;;;;;;;;;;;;;;;5091813;28;20389;-67
2022/03/03 07:47:47;;;;;;;;;;;;;;;;;;5078552;28;20428;-65
2022/03/03 07:50:13;;;;;;;;;;;;;;;;;;5057821;28;20003;-65
2022/03/03 07:52:38;;;;;;;;;;;13.50;80.60;;;;;;5085606;28;19936;-63
2022/03/03 07:55:04;;;;;;;;;;;13.80;80.70;;;;;;5090176;28;19924;-63
2022/03/03 07:57:30;;;;;;;;;;;;;;;;;;5095170;28;19928;-66
2022/03/03 07:59:58;;;;;;;;;;;13.80;80.40;;;;;;5094132;28;20344;-63
2022/03/03 08:02:23;;;;;;;;;;;14.00;80.30;;;;;;5078061;28;19975;-62
2022/03/03 08:04:53;;;;;;;;;;;14.20;80.20;;;;;;5087697;28;19982;-61
2022/03/03 08:07:18;;;;;;;;;;;14.20;79.90;;;;;;5093699;28;20408;-63
2022/03/03 08:09:47;;;;;;;;;;;14.40;79.90;;;;;;5095264;28;19924;-61
2022/03/03 08:12:13;;;;;;;;;;;14.30;79.70;;;;;;5060406;28;19924;-62
2022/03/03 08:14:39;;;;;;;;;;;;;;;;;;5087805;28;20015;-63
2022/03/03 08:17:05;;;;;;;;;;;14.40;79.70;;;;;;5096201;28;19924;-61
2022/03/03 08:19:31;;;;;;;;;;;;;;;;;;5076948;28;19932;-62
2022/03/03 08:21:57;;;;;;;;;;;14.60;79.90;;;;;;5093531;28;19928;-61
2022/03/03 08:24:23;;;;;;;;;;;14.40;79.60;;;;;;5078517;28;19924;-62
2022/03/03 08:26:48;;;;;;;;;;;14.30;79.20;;;;;;5055665;28;20355;-63
2022/03/03 08:29:14;;;;;;;;;;;14.60;79.30;;;;;;5086558;28;19924;-65
2022/03/03 08:31:45;;;;;;;;;;;14.50;79.20;;;;;;5048182;28;20019;-65
2022/03/03 08:34:20;;;;;;;;;;;14.70;79.30;;;;;;5076314;28;19925;-67
2022/03/03 08:36:54;;;;;;;;;;;14.70;79.10;;;;;;5081690;28;19938;-66
2022/03/03 08:39:23;;;;;;;;;;;14.60;79.10;;;;;;5116165;28;19931;-66
2022/03/03 08:41:50;;;;;;;;;;;14.90;79.40;;;;;;5100899;28;19970;-66
2022/03/03 08:44:15;;;;;;;;;;;14.80;79.20;;;;;;5095209;28;20441;-64
2022/03/03 08:46:41;;;;;;;;;;;14.80;79.10;;;;;;5077676;28;20058;-66
2022/03/03 08:49:08;;;;;;;;;;;14.80;79.20;;;;;;5095294;27;19924;-66
2022/03/03 08:51:34;;;;;;;;;;;;;;;;;;5095513;28;20350;-67
2022/03/03 08:54:00;;;;;;;;;;;14.90;79.40;;;;;;5079847;28;20033;-65
2022/03/03 08:56:25;;;;;;;;;;;14.70;78.30;;;;;;5115911;28;19930;-65
2022/03/03 08:58:51;;;;;;;;;;;14.80;78.90;;;;;;5100230;28;19978;-65
2022/03/03 09:01:17;;;;;;;;;;;14.80;79.00;;;;;;5095373;28;19924;-61
2022/03/03 09:03:43;;;;;;;;;;;15.00;79.00;;;;;;5096899;28;19938;-66
2022/03/03 09:06:15;;;;;;;;;;;14.90;79.10;;;;;;5109152;28;20042;-65
2022/03/03 09:08:41;;;;;;;;;;;14.90;78.80;;;;;;5080090;28;20278;-65
2022/03/03 09:11:07;;;;;;;;;;;14.70;78.80;;;;;;5087623;28;19924;-66
2022/03/03 09:13:33;;;;;;;;;;;;;;;;;;5114906;28;20424;-64
2022/03/03 09:15:59;;;;;;;;;;;14.80;78.70;;;;;;5114024;28;19924;-66
2022/03/03 09:18:24;;;;;;;;;;;;;;;;;;5125560;27;20274;-65
2022/03/03 09:20:50;;;;;;;;;;;14.70;78.70;;;;;;5091017;28;19927;-65
2022/03/03 09:23:16;;;;;;;;;;;14.90;78.90;;;;;;5115318;28;20020;-66
2022/03/03 09:25:43;;;;;;;;;;;;;;;;;;5109562;28;19946;-66
2022/03/03 09:28:09;;;;;;;;;;;15.20;79.10;;;;;;5095749;28;19928;-65
2022/03/03 09:30:34;;;;;;;;;;;14.80;78.80;;;;;;5106230;27;20053;-63
2022/03/03 09:33:00;;;;;;;;;;;15.00;78.80;;;;;;5084620;28;20275;-65
2022/03/03 09:35:26;;;;;;;;;;;15.00;78.50;;;;;;5102709;27;19923;-61
2022/03/03 09:37:52;;;;;;;;;;;;;;;;;;5107931;27;20335;-65
2022/03/03 09:40:18;;;;;;;;;;;15.00;78.50;;;;;;5107693;27;19984;-65
2022/03/03 09:43:00;;;;;;;;;;;15.10;78.50;;;;;;5110684;27;19924;-65
2022/03/03 09:45:25;;;;;;;;;;;15.10;78.50;;;;;;5106355;28;19927;-65
2022/03/03 09:47:53;;;;;;;;;;;15.30;78.80;;;;;;5110458;27;19923;-65
2022/03/03 09:50:19;;;;;;;;;;;15.00;78.80;;;;;;5135176;27;19924;-66
2022/03/03 09:52:45;;;;;;;;;;;15.00;78.70;;;;;;5134442;27;20019;-65
2022/03/03 09:55:11;;;;;;;;;;;14.70;78.70;;;;;;5116207;28;19930;-65
2022/03/03 09:57:36;;;;;;;;;;;15.10;79.00;;;;;;5114704;28;19930;-65
2022/03/03 10:00:04;;;;;;;;;;;14.90;78.90;;;;;;5112004;28;20293;-66
2022/03/03 10:02:31;;;;;;;;;;;;;;;;;;5102471;28;19928;-65
2022/03/03 10:04:56;;;;;;;;;;;15.10;79.10;;;;;;5113687;28;20400;-65
2022/03/03 10:07:22;;;;;;;;;;;;;;;;;;5114499;28;19923;-65
2022/03/03 10:10:00;;;;;;;;;;;15.00;79.10;;;;;;5113303;28;19924;-65
2022/03/03 10:12:30;;;;;;;;;;;;;;;;;;5088138;28;19928;-65
2022/03/03 10:14:56;;;;;;;;;;;15.20;79.40;;;;;;5106005;27;19923;-65
2022/03/03 10:17:22;;;;;;;;;;;15.00;79.20;;;;;;5114448;28;19977;-66
2022/03/03 10:19:54;;;;;;;;;;;14.90;79.30;;;;;;5086845;28;20372;-66
2022/03/03 10:22:39;;;;;;;;;;;15.00;79.60;;;;;;5076629;28;19981;-66
2022/03/03 10:25:06;;;;;;;;;;;14.80;79.40;;;;;;5104431;28;19924;-65
2022/03/03 10:27:33;;;;;;;;;;;;;;;;;;5124048;28;20420;-65
2022/03/03 10:29:59;;;;;;;;;;;14.80;79.50;;;;;;5113176;28;19977;-65
2022/03/03 10:32:25;;;;;;;;;;;;;;;;;;5113544;28;19923;-65
2022/03/03 10:34:53;;;;;;;;;;;15.10;79.50;;;;;;5097106;28;19924;-65
2022/03/03 10:37:23;;;;;;;;;;;14.70;79.30;;;;;;5103978;28;19923;-65
2022/03/03 10:39:55;;;;;;;;;;;14.80;79.00;;;;;;5113615;28;19928;-64
2022/03/03 10:42:22;;;;;;;;;;;14.80;79.30;;;;;;5103536;28;19969;-65
2022/03/03 10:44:48;;;;;;;;;;;;;;;;;;5116566;27;20326;-65
2022/03/03 10:47:24;;;;;;;;;;;14.70;78.90;;;;;;5117263;27;20011;-65
2022/03/03 10:49:53;;;;;;;;;;;14.60;79.10;;;;;;5118241;28;20350;-66
2022/03/03 10:52:20;;;;;;;;;;;14.40;78.70;;;;;;5113034;28;20409;-65
2022/03/03 10:55:05;;;;;;;;;;;14.50;78.60;;;;;;5083131;28;19928;-65
2022/03/03 10:57:33;;;;;;;;;;;14.50;78.60;;;;;;5114773;28;20011;-65
2022/03/03 11:00:00;;;;;;;;;;;14.40;78.60;;;;;;5087926;28;19971;-65
2022/03/03 11:02:29;;;;;;;;;;;14.60;78.50;;;;;;5102342;28;20281;-65
2022/03/03 11:04:55;;;;;;;;;;;14.40;78.20;;;;;;5107495;28;19920;-66
2022/03/03 11:07:21;;;;;;;;;;;14.60;78.30;;;;;;5093193;28;19925;-65
2022/03/03 11:09:47;;;;;;;;;;;14.50;78.20;;;;;;5098099;28;19932;-64
2022/03/03 11:12:13;;;;;;;;;;;;;;;;;;5114348;27;20296;-65
2022/03/03 11:14:39;;;;;;;;;;;14.40;78.20;;;;;;5114877;28;19923;-65
2022/03/03 11:17:05;;;;;;;;;;;14.40;78.10;;;;;;5117559;28;20281;-65
2022/03/03 11:19:31;;;;;;;;;;;14.50;78.10;;;;;;5116761;28;20010;-64
2022/03/03 11:21:57;;;;;;;;;;;14.50;77.90;;;;;;5115324;28;20397;-65
2022/03/03 11:24:22;;;;;;;;;;;14.40;78.00;;;;;;5117581;28;20010;-65
2022/03/03 11:26:48;;;;;;;;;;;;;;;;;;5094865;28;20293;-65
2022/03/03 11:29:16;;;;;;;;;;;14.60;77.80;;;;;;5078180;28;20324;-65
2022/03/03 11:31:43;;;;;;;;;;;14.50;77.60;;;;;;5113068;28;19923;-65
2022/03/03 11:34:21;;;;;;;;;;;14.60;77.50;;;;;;5089711;28;19974;-65
2022/03/03 11:36:47;;;;;;;;;;;14.70;77.50;;;;;;5098836;28;19960;-65
2022/03/03 11:39:31;;;;;;;;;;;14.90;77.50;;;;;;5116377;27;20370;-65
2022/03/03 11:41:57;;;;;;;;;;;14.80;77.20;;;;;;5079553;28;19924;-65
2022/03/03 11:44:34;;;;;;;;;;;15.10;77.20;;;;;;5102503;28;20357;-65
2022/03/03 11:47:00;;;;;;;;;;;14.80;76.80;;;;;;5093225;28;19974;-65
2022/03/03 11:49:26;;;;;;;;;;;14.90;76.70;;;;;;5085058;28;20012;-65
2022/03/03 11:51:54;;;;;;;;;;;15.10;76.60;;;;;;5116533;27;19931;-66
2022/03/03 11:54:24;;;;;;;;;;;15.10;76.60;;;;;;5113638;28;20377;-67
2022/03/03 11:57:04;;;;;;;;;;;15.10;76.60;;;;;;5110850;28;19932;-65
2022/03/03 11:59:33;;;;;;;;;;;15.20;76.70;;;;;;5097859;28;20029;-65
2022/03/03 12:01:59;;;;;;;;;;;15.10;76.80;;;;;;5102263;28;20293;-65
2022/03/03 12:04:26;;;;;;;;;;;15.10;76.80;;;;;;5077507;28;19931;-66
2022/03/03 12:06:53;;;;;;;;;;;15.30;77.10;;;;;;5096074;28;19924;-65
2022/03/03 12:09:20;;;;;;;;;;;15.20;76.90;;;;;;5110128;27;19931;-66
2022/03/03 12:11:46;;;;;;;;;;;15.00;76.60;;;;;;5113463;27;19924;-66
2022/03/03 12:14:12;;;;;;;;;;;;;;;;;;5089416;28;19926;-66
2022/03/03 12:16:37;;;;;;;;;;;15.40;76.90;;;;;;5103359;28;20012;-65
2022/03/03 12:19:04;;;;;;;;;;;15.60;77.20;;;;;;5068380;28;19963;-65
2022/03/03 12:21:33;;;;;;;;;;;15.80;77.20;;;;;;5103866;28;19934;-66
2022/03/03 12:24:27;;;;;;;;;;;15.70;76.50;;;;;;5114244;28;19924;-67
2022/03/03 12:26:56;;;;;;;;;;;15.80;76.30;;;;;;5115203;28;19924;-65
2022/03/03 12:29:32;;;;;;;;;;;15.80;76.40;;;;;;5115987;28;20022;-66
2022/03/03 12:31:58;;;;;;;;;;;15.90;76.50;;;;;;5114150;28;20331;-66
2022/03/03 12:34:25;;;;;;;;;;;;;;;;;;5115970;28;19928;-66
2022/03/03 12:36:51;;;;;;;;;;;;;;;;;;5100230;28;19924;-66
2022/03/03 12:39:17;;;;;;;;;;;17.00;75.70;;;;;;5115930;28;19977;-66
2022/03/03 12:41:43;;;;;;;;;;;18.00;74.20;;;;;;5113341;28;19923;-66
2022/03/03 12:44:10;;;;;;;;;;;18.00;74.50;;;;;;5114811;28;19924;-65
2022/03/03 12:46:36;;;;;;;;;;;18.60;74.00;;;;;;5097681;28;20011;-66
2022/03/03 12:49:05;;;;;;;;;;;18.90;73.10;;;;;;5114740;28;20014;-66
2022/03/03 12:51:32;;;;;;;;;;;19.30;72.40;;;;;;5114468;28;19923;-65
2022/03/03 12:54:01;;;;;;;;;;;19.50;72.20;;;;;;5079718;28;19920;-66
2022/03/03 12:56:28;;;;;;;;;;;19.20;71.90;;;;;;5108641;28;19953;-65
2022/03/03 12:58:54;;;;;;;;;;;;;;;;;;5115504;28;20381;-66
2022/03/03 13:01:20;;;;;;;;;;;18.70;71.70;;;;;;5112124;28;20380;-65
2022/03/03 13:03:46;;;;;;;;;;;18.60;72.00;;;;;;5115514;27;19920;-66
2022/03/03 13:06:11;;;;;;;;;;;17.60;72.40;;;;;;5115338;28;20006;-66
2022/03/03 13:08:37;;;;;;;;;;;17.70;72.60;;;;;;5111556;28;19923;-66
2022/03/03 13:11:04;;;;;;;;;;;17.20;73.00;;;;;;5115607;28;19927;-66
2022/03/03 13:13:31;;;;;;;;;;;17.00;73.20;;;;;;5113353;28;19927;-65
2022/03/03 13:15:57;;;;;;;;;;;16.80;73.50;;;;;;5109850;28;20430;-67
2022/03/03 13:18:24;;;;;;;;;;;16.90;73.90;;;;;;5114644;28;19924;-62
2022/03/03 13:20:56;;;;;;;;;;;16.70;74.10;;;;;;5113713;28;20344;-62
2022/03/03 13:23:23;;;;;;;;;;;16.30;73.90;;;;;;5114044;27;19924;-68
2022/03/03 13:25:49;;;;;;;;;;;;;;;;;;5127989;27;19931;-68
2022/03/03 13:28:15;;;;;;;;;;;;;;;;;;5094497;28;19928;-68
2022/03/03 13:30:50;;;;;;;;;;;16.20;74.40;;;;;;5102224;28;20022;-67
2022/03/03 13:33:16;;;;;;;;;;;16.00;74.40;;;;;;5111167;27;19924;-65
2022/03/03 13:35:42;;;;;;;;;;;15.90;74.40;;;;;;5114835;28;19924;-67
2022/03/03 13:38:08;;;;;;;;;;;15.90;74.60;;;;;;5117704;27;19923;-67
2022/03/03 13:40:34;;;;;;;;;;;16.10;75.10;;;;;;5135262;27;19931;-66
2022/03/03 13:42:59;;;;;;;;;;;16.00;74.90;;;;;;5106724;27;19935;-65
2022/03/03 13:45:26;;;;;;;;;;;15.60;74.60;;;;;;5084070;28;20267;-67
2022/03/03 13:48:02;;;;;;;;;;;16.10;75.10;;;;;;5100796;27;20415;-66
2022/03/03 13:50:28;;;;;;;;;;;15.40;74.60;;;;;;5096515;28;19950;-67
2022/03/03 13:52:54;;;;;;;;;;;15.80;75.00;;;;;;5114526;28;20371;-67
2022/03/03 13:55:20;;;;;;;;;;;15.60;75.00;;;;;;5101975;28;19979;-66
2022/03/03 13:57:48;;;;;;;;;;;15.50;75.00;;;;;;5112178;28;20019;-67
2022/03/03 14:00:24;;;;;;;;;;;15.70;75.40;;;;;;5114757;27;19931;-67
2022/03/03 14:02:53;;;;;;;;;;;15.30;75.20;;;;;;5096562;28;19927;-67
2022/03/03 14:05:19;;;;;;;;;;;;;;;;;;5112900;28;19924;-67
2022/03/03 14:07:53;;;;;;;;;;;15.20;75.50;;;;;;5115691;28;19946;-66
2022/03/03 14:10:20;;;;;;;;;;;15.20;75.40;;;;;;5104513;28;19989;-65
2022/03/03 14:13:02;;;;;;;;;;;14.90;75.50;;;;;;5093982;28;19924;-67
2022/03/03 14:15:28;;;;;;;;;;;15.00;75.70;;;;;;5089413;28;20015;-67
2022/03/03 14:17:53;;;;;;;;;;;15.00;75.60;;;;;;5106448;28;20010;-67
2022/03/03 14:20:19;;;;;;;;;;;15.10;75.60;;;;;;5081285;28;20011;-67
2022/03/03 14:22:54;;;;;;;;;;;15.10;75.70;;;;;;5109656;28;19977;-67
2022/03/03 14:25:20;;;;;;;;;;;15.00;75.90;;;;;;5092883;28;20423;-67
2022/03/03 14:27:46;;;;;;;;;;;14.80;75.70;;;;;;5094255;28;19924;-67
2022/03/03 14:30:12;;;;;;;;;;;14.90;75.70;;;;;;5112362;28;19968;-67
2022/03/03 14:32:37;;;;;;;;;;;14.70;75.70;;;;;;5095833;28;19959;-66
2022/03/03 14:35:03;;;;;;;;;;;14.80;75.70;;;;;;5099960;28;19931;-66